Time;durP1;ratioP1;P1;durP2;ratioP2;P2;SDS_P1;SDS_P2;PMS_P1;PMS_P2;Temp;Humidity;BMP_temperature;BMP_pressure;BME280_temperature;BME280_humidity;BME280_pressure;Samples;Min_cycle;Max_cycle;Signal;HPM_P1;HPM_P2
2021/12/25 00:01:52;;;;;;;11.43;3.00;;;;;;;7.12;100.00;97675.84;5044844;28;20414;-71
2021/12/25 00:04:17;;;;;;;2.92;2.20;;;;;;;7.04;100.00;97667.44;5043430;28;20547;-70
2021/12/25 00:06:43;;;;;;;4.80;3.08;;;;;;;7.09;100.00;97655.28;5051408;28;20060;-68
2021/12/25 00:09:09;;;;;;;2.85;1.73;;;;;;;7.10;100.00;97656.97;5074556;22;20486;-73
2021/12/25 00:11:34;;;;;;;1.23;1.23;;;;;;;7.11;100.00;97661.28;5031871;28;20454;-73
2021/12/25 00:13:59;;;;;;;1.63;1.52;;;;;;;7.04;100.00;97663.13;5031867;28;20026;-73
2021/12/25 00:16:25;;;;;;;1.30;1.23;;;;;;;6.98;100.00;97660.69;5031586;28;20033;-73
2021/12/25 00:18:50;;;;;;;2.08;1.83;;;;;;;7.05;100.00;97658.81;5031755;28;20025;-73
2021/12/25 00:21:15;;;;;;;1.48;1.23;;;;;;;7.10;100.00;97656.97;5031811;28;20104;-73
2021/12/25 00:23:41;;;;;;;1.08;1.08;;;;;;;7.11;100.00;97653.53;5031925;28;20029;-73
2021/12/25 00:26:12;;;;;;;0.63;0.63;;;;;;;7.09;100.00;97650.97;5031758;28;20049;-73
2021/12/25 00:33:50;;;;;;;3.90;2.25;;;;;;;7.12;100.00;97655.22;5043990;28;20383;-73
2021/12/25 00:36:18;;;;;;;2.35;2.05;;;;;;;7.10;100.00;97656.97;5026189;28;20059;-73
2021/12/25 00:38:45;;;;;;;2.97;2.67;;;;;;;7.04;100.00;97657.13;5047172;28;20056;-73
2021/12/25 00:41:12;;;;;;;4.90;1.63;;;;;;;7.05;100.00;97658.81;5055614;28;20036;-73
2021/12/25 00:43:38;;;;;;;2.85;2.65;;;;;;;7.04;100.00;97657.13;5055408;28;20029;-73
2021/12/25 00:46:03;;;;;;;5.38;3.17;;;;;;;7.05;100.00;97653.66;5055174;28;20036;-73
2021/12/25 00:48:29;;;;;;;1.95;1.80;;;;;;;6.98;100.00;97647.81;5055159;28;20040;-73
2021/12/25 00:50:54;;;;;;;1.45;1.40;;;;;;;7.00;100.00;97650.34;5055341;28;20029;-73
2021/12/25 00:53:20;;;;;;;1.30;1.25;;;;;;;7.02;100.00;97646.03;5055111;28;20056;-73
2021/12/25 00:55:45;;;;;;;4.85;2.92;;;;;;;6.91;100.00;97641.97;5055607;28;20040;-73
2021/12/25 00:58:11;;;;;;;1.38;1.27;;;;;;;6.93;100.00;97640.19;5054903;28;20531;-73
2021/12/25 08:01:25;;;;;;;2.20;1.77;;;;;;;7.22;100.00;97558.81;5532401;23;20051;-74
2021/12/25 08:03:51;;;;;;;2.92;2.47;;;;;;;7.22;100.00;97563.97;4973314;28;20043;-73
2021/12/25 08:06:17;;;;;;;5.95;3.22;;;;;;;7.24;100.00;97567.34;4974981;28;20487;-73
2021/12/25 08:08:43;;;;;;;2.15;1.75;;;;;;;7.25;100.00;97571.63;4973017;28;20068;-73
2021/12/25 08:11:08;;;;;;;2.80;2.28;;;;;;;7.29;100.00;97578.38;4973288;28;20109;-73
2021/12/25 08:13:33;;;;;;;2.63;2.00;;;;;;;7.35;100.00;97575.69;4973190;28;20027;-73
2021/12/25 08:15:59;;;;;;;2.00;1.90;;;;;;;7.39;100.00;97577.28;4973427;28;20031;-77
2021/12/25 08:18:24;;;;;;;2.25;1.60;;;;;;;7.43;100.00;97584.06;4973154;28;20093;-77
2021/12/25 08:20:49;;;;;;;1.00;1.00;;;;;;;7.50;100.00;97582.19;4972954;28;20034;-76
2021/12/25 08:23:15;;;;;;;1.63;1.52;;;;;;;7.35;100.00;97580.84;4973016;28;20037;-77
2021/12/25 08:25:40;;;;;;;1.13;1.02;;;;;;;7.33;100.00;97587.75;4972905;28;20503;-77
2021/12/25 08:28:06;;;;;;;2.58;2.38;;;;;;;7.26;100.00;97590.53;4972784;28;20086;-77
2021/12/25 08:30:31;;;;;;;1.17;1.17;;;;;;;7.32;100.00;97596.38;4972833;28;20039;-77
2021/12/25 08:32:58;;;;;;;1.60;1.50;;;;;;;7.33;100.00;97590.31;4973063;28;20023;-77
2021/12/25 08:35:26;;;;;;;1.60;1.52;;;;;;;7.36;100.00;97587.69;4971752;28;20475;-77
2021/12/25 08:37:52;;;;;;;1.20;1.15;;;;;;;7.41;100.00;97582.41;4974490;28;20391;-77
2021/12/25 08:40:17;;;;;;;1.80;1.70;;;;;;;7.44;100.00;97590.91;4971543;28;20030;-77
2021/12/25 08:42:52;;;;;;;4.47;1.58;;;;;;;7.46;100.00;97594.28;4972923;28;20022;-77
2021/12/25 08:47:55;;;;;;;1.27;1.17;;;;;;;7.60;100.00;97600.84;4972710;28;20015;-77
2021/12/25 08:50:20;;;;;;;1.48;1.10;;;;;;;7.48;100.00;97602.81;4975208;28;20419;-77
2021/12/25 08:52:46;;;;;;;1.38;1.33;;;;;;;7.52;100.00;97602.75;4976413;28;20076;-77
2021/12/25 08:55:11;;;;;;;0.70;0.70;;;;;;;7.58;100.00;97597.44;4976674;28;20035;-77
2021/12/25 08:57:36;;;;;;;4.70;3.55;;;;;;;7.61;100.00;97602.53;4976138;28;20106;-77
2021/12/25 09:00:03;;;;;;;3.80;2.63;;;;;;;7.59;100.00;97606.88;4976379;28;20027;-77
2021/12/25 09:02:28;;;;;;;1.35;1.25;;;;;;;7.57;100.00;97611.22;4976241;28;20033;-77
2021/12/25 09:04:54;;;;;;;1.48;1.40;;;;;;;7.56;100.00;97614.69;4976457;28;20026;-78
2021/12/25 09:07:20;;;;;;;2.78;1.83;;;;;;;7.60;100.00;97611.16;4977730;28;20042;-77
2021/12/25 09:09:45;;;;;;;1.45;0.93;;;;;;;7.69;100.00;97611.78;4976264;28;20113;-77
2021/12/25 09:12:15;;;;;;;1.90;1.77;;;;;;;7.78;100.00;97600.34;4976127;28;20476;-78
2021/12/25 09:14:41;;;;;;;2.08;1.55;;;;;;;7.85;100.00;97607.06;4976254;28;20034;-78
2021/12/25 09:17:08;;;;;;;1.38;1.27;;;;;;;7.90;100.00;97610.38;4976023;28;20428;-78
2021/12/25 09:19:33;;;;;;;2.42;1.48;;;;;;;7.90;100.00;97610.38;4976085;28;20106;-77
2021/12/25 09:21:59;;;;;;;3.13;2.00;;;;;;;7.98;100.00;97613.59;4975965;28;20544;-77
2021/12/25 09:24:25;;;;;;;1.60;1.50;;;;;;;7.92;100.00;97613.75;4976176;28;20097;-77
2021/12/25 09:26:50;;;;;;;1.08;1.08;;;;;;;7.89;100.00;97619.00;4975647;28;20589;-78
2021/12/25 09:29:16;;;;;;;2.35;2.15;;;;;;;7.84;100.00;97618.28;4975911;28;20043;-77
2021/12/25 09:31:41;;;;;;;7.63;4.78;;;;;;;7.82;100.00;97620.03;4975832;28;20475;-77
2021/12/25 09:34:08;;;;;;;2.40;2.20;;;;;;;7.89;100.00;97624.16;4975811;28;20027;-77
2021/12/25 09:36:34;;;;;;;4.05;2.97;;;;;;;8.02;100.00;97624.66;4977373;28;20476;-78
2021/12/25 09:39:01;;;;;;;3.25;2.95;;;;;;;8.01;100.00;97629.88;4975596;28;20026;-78
2021/12/25 09:41:26;;;;;;;2.53;2.33;;;;;;;7.94;100.00;97627.47;4975647;28;20027;-74
2021/12/25 09:43:52;;;;;;;3.35;2.55;;;;;;;8.04;100.00;97629.81;4976038;28;20379;-73
2021/12/25 09:46:20;;;;;;;1.80;1.70;;;;;;;8.01;100.00;97632.44;4975698;28;20023;-74
2021/12/25 09:48:47;;;;;;;1.60;1.50;;;;;;;7.95;100.00;97634.31;4975447;28;20050;-74
2021/12/25 09:51:13;;;;;;;6.22;2.15;;;;;;;7.97;100.00;97632.50;4975458;28;20072;-74
2021/12/25 09:53:39;;;;;;;2.30;2.20;;;;;;;8.01;100.00;97632.44;4975484;28;20070;-74
2021/12/25 09:56:05;;;;;;;1.60;1.50;;;;;;;8.01;100.00;97632.44;4975291;28;20109;-74
2021/12/25 09:58:31;;;;;;;4.20;1.27;;;;;;;7.97;100.00;97622.19;4975269;28;20086;-74
2021/12/25 10:00:59;;;;;;;3.13;1.83;;;;;;;7.95;100.00;97629.16;4974748;28;20034;-74
2021/12/25 10:03:40;;;;;;;1.40;1.40;;;;;;;7.94;100.00;97630.03;4975292;28;20522;-73
2021/12/25 10:06:06;;;;;;;1.65;1.55;;;;;;;7.99;100.00;97630.75;4976930;28;20391;-73
2021/12/25 10:08:31;;;;;;;1.70;1.60;;;;;;;8.04;100.00;97628.06;4975037;28;20023;-73
2021/12/25 10:11:01;;;;;;;2.17;1.88;;;;;;;7.94;100.00;97627.47;4975117;28;20504;-73
2021/12/25 10:13:29;;;;;;;5.93;2.72;;;;;;;8.02;100.00;97628.97;4975222;28;20029;-74
2021/12/25 10:16:17;;;;;;;2.97;2.72;;;;;;;8.03;100.00;97625.53;4974792;28;20049;-75
2021/12/25 10:18:42;;;;;;;2.88;2.25;;;;;;;8.07;100.00;97637.44;4975086;28;20587;-73
2021/12/25 10:21:21;;;;;;;1.95;1.80;;;;;;;8.13;100.00;97629.56;4974891;28;20034;-73
2021/12/25 10:24:27;;;;;;;7.55;3.17;;;;;;;8.17;100.00;97631.13;4975029;28;20026;-73
2021/12/25 10:27:07;;;;;;;13.73;7.53;;;;;;;8.29;100.00;97628.25;4955987;28;20112;-73
2021/12/25 10:29:32;;;;;;;4.07;3.15;;;;;;;8.37;100.00;97630.66;4972511;28;20082;-73
2021/12/25 10:32:01;;;;;;;10.75;2.90;;;;;;;8.47;100.00;97627.78;4973843;28;20113;-73
2021/12/25 10:34:30;;;;;;;3.33;2.50;;;;;;;8.62;100.00;97621.31;4975269;28;20580;-74
2021/12/25 10:37:06;;;;;;;1.75;1.42;;;;;;;8.65;100.00;97625.53;4984312;28;20080;-73
2021/12/25 10:39:32;;;;;;;5.25;2.80;;;;;;;8.93;100.00;97610.91;4974590;28;20031;-74
2021/12/25 10:42:20;;;;;;;3.70;2.67;;;;;;;9.17;100.00;97613.66;4974439;28;20034;-73
2021/12/25 10:44:55;;;;;;;3.03;2.75;;;;;;;9.26;100.00;97609.03;4974483;28;20030;-73
2021/12/25 10:47:26;;;;;;;7.38;5.97;;;;;;;9.33;100.00;97609.72;4974100;28;20023;-73
2021/12/25 10:50:08;;;;;;;5.35;3.45;;;;;;;9.23;100.00;97618.63;4974326;28;20038;-73
2021/12/25 10:52:41;;;;;;;4.15;2.60;;;;;;;9.22;100.00;97609.19;4974342;28;20041;-74
2021/12/25 10:55:06;;;;;;;3.05;2.75;;;;;;;9.16;100.00;97606.78;4974385;28;20462;-73
2021/12/25 10:57:38;;;;;;;16.27;5.13;;;;;;;9.04;100.00;97602.00;4973867;28;20102;-74
2021/12/25 11:00:21;;;;;;;4.38;2.58;;;;;;;9.08;100.00;97609.59;4973971;28;20027;-73
2021/12/25 11:02:50;;;;;;;7.95;4.00;;;;;;;9.06;100.00;97602.81;4973962;28;20093;-75
2021/12/25 11:05:22;;;;;;;4.82;3.67;;;;;;;9.06;100.00;97595.91;4954762;28;20098;-74
2021/12/25 11:08:08;;;;;;;8.65;3.28;;;;;;;9.02;100.00;97595.16;4974761;28;20018;-74
2021/12/25 11:10:47;;;;;;;3.05;2.08;;;;;;;9.11;100.00;97593.19;4954484;28;20049;-74
2021/12/25 11:13:33;;;;;;;0.77;0.77;;;;;;;9.06;100.00;97597.66;4953827;28;20090;-74
2021/12/25 11:16:38;;;;;;;2.03;1.38;;;;;;;9.15;100.00;97595.63;4954489;28;20469;-74
2021/12/25 11:19:17;;;;;;;2.10;1.02;;;;;;;9.26;100.00;97605.63;4954253;28;20381;-74
2021/12/25 11:21:46;;;;;;;1.17;1.10;;;;;;;9.31;100.00;97598.56;4954537;28;20027;-74
2021/12/25 11:24:19;;;;;;;4.85;2.08;;;;;;;9.25;100.00;97597.03;4954437;28;20038;-74
2021/12/25 11:26:51;;;;;;;6.03;3.13;;;;;;;9.19;100.00;97598.97;4957623;28;20451;-74
2021/12/25 11:29:19;;;;;;;7.93;3.38;;;;;;;9.07;100.00;97592.41;4966151;28;20113;-74
2021/12/25 11:31:47;;;;;;;5.35;1.27;;;;;;;9.02;100.00;97592.56;4973544;28;20022;-74
2021/12/25 11:34:13;;;;;;;2.85;1.02;;;;;;;9.21;100.00;97594.56;4973433;28;20022;-74
2021/12/25 11:36:41;;;;;;;0.75;0.75;;;;;;;9.35;100.00;97589.81;4975583;28;20025;-74
2021/12/25 11:39:06;;;;;;;1.77;1.50;;;;;;;9.34;100.00;97582.97;4973316;28;20522;-74
2021/12/25 11:41:33;;;;;;;1.88;1.77;;;;;;;9.36;100.00;97590.66;4973339;28;20051;-74
2021/12/25 11:44:02;;;;;;;1.23;1.17;;;;;;;9.53;100.00;97581.47;4973640;28;20026;-74
2021/12/25 11:46:40;;;;;;;0.65;0.65;;;;;;;9.47;100.00;97586.81;4973332;28;20029;-74
2021/12/25 11:49:11;;;;;;;0.80;0.80;;;;;;;9.39;100.00;97578.47;4973384;28;20030;-74
2021/12/25 11:51:39;;;;;;;1.00;0.98;;;;;;;9.22;100.00;97583.34;4973299;28;20022;-74
2021/12/25 11:57:11;;;;;;;0.75;0.75;;;;;;;9.17;100.00;97582.63;4973239;28;20030;-74
2021/12/25 11:59:45;;;;;;;1.50;0.98;;;;;;;9.23;100.00;97578.13;4973500;28;20033;-74
2021/12/25 12:02:11;;;;;;;1.15;1.05;;;;;;;9.01;100.00;97585.72;4972937;28;20093;-74
2021/12/25 12:04:37;;;;;;;0.60;0.60;;;;;;;9.04;100.00;97581.31;4973125;28;20038;-74
2021/12/25 12:07:13;;;;;;;3.35;0.70;;;;;;;8.95;100.00;97583.31;4974989;28;20022;-74
2021/12/25 12:09:44;;;;;;;0.60;0.60;;;;;;;9.09;100.00;97574.28;4971936;28;20034;-74
2021/12/25 12:12:23;;;;;;;0.52;0.52;;;;;;;9.09;100.00;97575.16;4973065;28;20045;-74
2021/12/25 12:15:14;;;;;;;0.70;0.70;;;;;;;8.98;100.00;97580.63;4972935;28;20077;-74
2021/12/25 12:17:41;;;;;;;0.47;0.47;;;;;;;9.04;100.00;97576.16;4972919;28;20102;-74
2021/12/25 12:20:09;;;;;;;0.60;0.60;;;;;;;8.84;100.00;97579.34;4972969;28;20091;-74
2021/12/25 12:27:40;;;;;;;0.60;0.60;;;;;;;8.71;100.00;97584.06;4980726;28;20030;-74
2021/12/25 12:30:12;;;;;;;2.25;1.52;;;;;;;8.58;100.00;97587.91;4976829;28;20484;-74
2021/12/25 12:32:46;;;;;;;1.30;1.00;;;;;;;8.62;100.00;97592.09;4976783;28;20117;-74
2021/12/25 12:35:26;;;;;;;0.75;0.75;;;;;;;8.75;100.00;97590.81;4976861;28;20092;-74
2021/12/25 12:37:52;;;;;;;1.00;1.00;;;;;;;8.73;100.00;97593.44;4978578;28;20034;-74
2021/12/25 12:40:23;;;;;;;0.60;0.60;;;;;;;8.82;100.00;97601.81;4976858;28;20034;-74
2021/12/25 12:42:54;;;;;;;1.35;0.75;;;;;;;8.68;100.00;97599.63;4976637;28;20061;-74
2021/12/25 12:45:21;;;;;;;0.50;0.50;;;;;;;8.56;100.00;97594.81;4976744;28;20077;-74
2021/12/25 12:48:11;;;;;;;0.90;0.90;;;;;;;8.46;100.00;97610.59;4976239;28;20089;-74
2021/12/25 12:50:39;;;;;;;1.27;0.65;;;;;;;8.40;100.00;97608.16;4976498;28;20058;-74
2021/12/25 12:53:09;;;;;;;0.73;0.73;;;;;;;8.42;100.00;97603.81;4976430;28;20031;-74
2021/12/25 12:55:46;;;;;;;1.50;0.80;;;;;;;8.30;100.00;97604.13;4976584;28;20027;-74
2021/12/25 12:58:20;;;;;;;2.65;0.82;;;;;;;8.27;100.00;97604.22;4976141;28;20054;-74
2021/12/25 13:00:53;;;;;;;1.02;1.02;;;;;;;8.35;100.00;97604.00;4976291;28;20169;-74
2021/12/25 13:03:19;;;;;;;0.80;0.57;;;;;;;8.21;100.00;97604.38;4976328;28;20059;-74
2021/12/25 13:05:51;;;;;;;1.02;0.95;;;;;;;8.22;100.00;97606.09;4977979;28;20121;-74
2021/12/25 13:08:27;;;;;;;1.15;1.15;;;;;;;8.26;100.00;97612.84;4967322;28;20505;-74
2021/12/25 13:11:01;;;;;;;0.77;0.77;;;;;;;8.38;100.00;97612.53;4976033;28;20050;-74
2021/12/25 13:13:30;;;;;;;0.88;0.88;;;;;;;8.35;100.00;97615.16;4976094;28;20476;-74
2021/12/25 13:15:59;;;;;;;0.98;0.98;;;;;;;8.35;100.00;97606.56;4975835;28;20035;-74
2021/12/25 13:18:40;;;;;;;1.00;1.00;;;;;;;8.45;100.00;97614.03;4975933;28;20027;-74
2021/12/25 13:21:08;;;;;;;0.93;0.93;;;;;;;8.49;100.00;97610.50;4975931;28;20031;-74
2021/12/25 13:23:46;;;;;;;0.55;0.55;;;;;;;8.33;100.00;97613.53;4975868;28;20054;-74
2021/12/25 13:26:14;;;;;;;0.82;0.82;;;;;;;8.40;100.00;97615.06;4975765;28;20087;-74
2021/12/25 13:28:41;;;;;;;0.95;0.95;;;;;;;8.40;100.00;97623.66;4975555;28;20082;-74
2021/12/25 13:31:10;;;;;;;0.50;0.50;;;;;;;8.44;100.00;97632.16;4975724;28;20121;-74
2021/12/25 13:33:44;;;;;;;0.75;0.75;;;;;;;8.56;100.00;97626.69;4975771;28;20023;-74
2021/12/25 13:36:12;;;;;;;0.70;0.70;;;;;;;8.72;100.00;97627.91;4977023;28;20034;-74
2021/12/25 13:38:52;;;;;;;0.73;0.70;;;;;;;8.58;100.00;97634.38;4975551;28;20105;-74
2021/12/25 13:41:36;;;;;;;1.20;1.10;;;;;;;8.66;100.00;97638.44;4975585;28;20074;-74
2021/12/25 13:44:14;;;;;;;1.63;1.33;;;;;;;8.68;100.00;97635.78;4975585;28;20030;-74
2021/12/25 13:46:48;;;;;;;0.80;0.80;;;;;;;8.50;100.00;97642.31;4975536;28;20081;-74
2021/12/25 13:49:34;;;;;;;1.02;1.02;;;;;;;8.38;100.00;97646.09;4975478;28;20587;-74
2021/12/25 13:52:20;;;;;;;0.82;0.75;;;;;;;8.36;100.00;97650.44;4975560;28;20033;-74
2021/12/25 13:55:15;;;;;;;2.45;1.10;;;;;;;8.52;100.00;97644.88;4975333;28;20031;-74
2021/12/25 13:57:44;;;;;;;1.20;1.10;;;;;;;8.33;100.00;97645.34;4975234;28;20050;-74
2021/12/25 14:00:12;;;;;;;;;;;;;;;8.22;100.00;97647.38;4975469;28;20023;-74
2021/12/25 14:02:42;;;;;;;0.60;0.60;;;;;;;8.20;100.00;97654.28;4975474;28;20268;-74
2021/12/25 14:05:08;;;;;;;2.53;1.85;;;;;;;8.15;100.00;97651.00;4975222;28;20126;-74
2021/12/25 14:07:34;;;;;;;1.67;1.58;;;;;;;8.15;100.00;97653.56;4977331;28;20105;-75
2021/12/25 14:10:03;;;;;;;6.03;3.22;;;;;;;8.17;100.00;97650.06;4975144;28;20031;-74
2021/12/25 14:12:30;;;;;;;1.90;1.73;;;;;;;8.27;100.00;97645.53;4975186;28;20057;-74
2021/12/25 14:14:57;;;;;;;1.30;1.20;;;;;;;8.37;100.00;97657.31;5002437;23;20043;-72
2021/12/25 14:17:23;;;;;;;1.05;1.05;;;;;;;8.35;100.00;97655.63;4994546;28;20026;-72
2021/12/25 14:19:49;;;;;;;1.33;1.23;;;;;;;8.28;100.00;97657.53;4994419;28;20395;-71
2021/12/25 14:22:19;;;;;;;1.13;1.13;;;;;;;8.31;100.00;97660.00;4994442;28;20037;-71
2021/12/25 14:24:47;;;;;;;1.15;0.85;;;;;;;8.20;100.00;97660.28;4994401;28;20034;-72
2021/12/25 14:27:22;;;;;;;4.70;1.25;;;;;;;8.31;100.00;97667.75;4997597;28;20034;-71
2021/12/25 14:29:49;;;;;;;1.30;1.20;;;;;;;8.28;100.00;97660.09;5005619;28;20022;-72
2021/12/25 14:32:29;;;;;;;1.98;1.85;;;;;;;8.29;100.00;97654.06;5013671;28;20040;-71
2021/12/25 14:34:56;;;;;;;;;;;;;;;8.25;100.00;97658.44;5014137;28;20474;-71
2021/12/25 14:37:36;;;;;;;1.40;1.33;;;;;;;8.28;100.00;97654.94;5006715;28;20406;-71
2021/12/25 14:40:05;;;;;;;0.65;0.65;;;;;;;8.31;100.00;97648.84;5012182;28;20026;-71
2021/12/25 14:42:47;;;;;;;1.02;1.02;;;;;;;8.15;100.00;97651.00;5013673;28;20041;-72
2021/12/25 14:45:13;;;;;;;0.90;0.90;;;;;;;7.90;100.00;97656.78;5013719;28;20108;-71
2021/12/25 14:47:59;;;;;;;1.27;1.17;;;;;;;7.82;100.00;97658.69;5012274;28;20032;-71
2021/12/25 14:50:32;;;;;;;3.03;1.75;;;;;;;7.80;100.00;97660.50;5013603;28;20049;-72
2021/12/25 14:53:13;;;;;;;1.05;1.00;;;;;;;7.85;100.00;97657.78;5013371;28;20390;-71
2021/12/25 14:55:42;;;;;;;1.63;1.52;;;;;;;7.94;100.00;97662.72;5013386;28;20497;-71
2021/12/25 14:58:17;;;;;;;1.33;1.27;;;;;;;8.06;100.00;97656.38;5006403;28;20463;-71
2021/12/25 15:00:44;;;;;;;0.70;0.70;;;;;;;7.90;100.00;97656.78;5009199;28;20029;-71
2021/12/25 15:03:22;;;;;;;0.75;0.75;;;;;;;7.93;100.00;97656.72;5013215;28;20100;-71
2021/12/25 15:05:54;;;;;;;1.48;1.15;;;;;;;7.77;100.00;97650.22;5010654;28;20033;-71
2021/12/25 15:08:27;;;;;;;1.60;1.50;;;;;;;7.70;100.00;97653.88;4994405;28;20033;-72
2021/12/25 15:10:55;;;;;;;0.90;0.90;;;;;;;7.72;100.00;97652.09;4993583;28;20089;-72
2021/12/25 15:13:23;;;;;;;2.03;1.17;;;;;;;7.76;100.00;97658.88;4993470;28;20073;-71
2021/12/25 15:15:55;;;;;;;1.33;1.23;;;;;;;7.75;100.00;97657.19;4993141;28;20033;-72
2021/12/25 15:18:26;;;;;;;2.08;1.85;;;;;;;7.73;100.00;97653.78;4993615;28;20383;-72
2021/12/25 15:21:10;;;;;;;1.33;1.23;;;;;;;7.72;100.00;97663.25;4993442;28;20041;-72
2021/12/25 15:23:36;;;;;;;4.28;2.53;;;;;;;7.62;100.00;97666.94;4993383;28;20072;-72
2021/12/25 15:26:09;;;;;;;2.65;1.88;;;;;;;7.65;100.00;97673.75;4993052;28;20438;-71
2021/12/25 15:28:36;;;;;;;4.78;2.90;;;;;;;7.61;100.00;97660.09;5000918;28;20109;-71
2021/12/25 15:31:14;;;;;;;2.47;2.17;;;;;;;7.57;100.00;97662.78;5011162;28;20029;-71
2021/12/25 15:33:51;;;;;;;1.73;1.63;;;;;;;7.54;100.00;97660.25;5012723;28;20034;-72
2021/12/25 15:36:17;;;;;;;2.03;1.92;;;;;;;7.53;100.00;97661.16;5010019;28;20105;-71
2021/12/25 15:38:43;;;;;;;3.03;2.15;;;;;;;7.51;100.00;97657.78;5004369;28;20128;-72
2021/12/25 15:41:09;;;;;;;2.58;2.22;;;;;;;7.48;100.00;97658.69;5012637;28;20525;-72
2021/12/25 15:43:35;;;;;;;1.17;1.15;;;;;;;7.55;100.00;97659.41;5012682;28;20448;-71
2021/12/25 15:46:03;;;;;;;4.57;2.22;;;;;;;7.51;100.00;97662.94;5012454;28;20044;-72
2021/12/25 15:48:30;;;;;;;2.17;2.03;;;;;;;7.55;100.00;97669.72;5012600;28;20079;-71
2021/12/25 15:50:55;;;;;;;3.00;2.45;;;;;;;7.50;100.00;97667.25;5012359;28;20029;-71
2021/12/25 15:53:21;;;;;;;1.50;1.40;;;;;;;7.51;100.00;97673.25;5012457;28;20395;-72
2021/12/25 15:55:46;;;;;;;1.73;1.63;;;;;;;7.48;100.00;97674.97;5012136;28;20022;-71
2021/12/25 15:58:14;;;;;;;3.90;3.28;;;;;;;7.40;100.00;97676.91;5004809;28;20030;-72
2021/12/25 16:00:45;;;;;;;3.50;2.75;;;;;;;7.41;100.00;97683.75;5007868;28;20037;-72
2021/12/25 16:03:12;;;;;;;4.90;2.38;;;;;;;7.36;100.00;97684.75;5012383;28;20120;-71
2021/12/25 16:05:38;;;;;;;3.30;2.65;;;;;;;7.34;100.00;97687.34;5011330;28;20030;-72
2021/12/25 16:08:05;;;;;;;5.82;2.80;;;;;;;7.31;100.00;97697.72;5001042;28;20029;-72
2021/12/25 16:10:31;;;;;;;5.13;4.53;;;;;;;7.30;100.00;97705.47;5012163;28;20487;-72
2021/12/25 16:12:57;;;;;;;7.60;3.92;;;;;;;7.31;100.00;97696.91;5012431;28;20113;-72
2021/12/25 16:15:22;;;;;;;7.00;4.45;;;;;;;7.22;100.00;97700.50;5011927;28;20033;-71
2021/12/25 16:17:47;;;;;;;3.15;2.85;;;;;;;7.35;100.00;97699.38;5012094;28;20053;-72
2021/12/25 16:20:15;;;;;;;3.33;3.13;;;;;;;7.50;100.00;97707.63;5012166;28;20026;-72
2021/12/25 16:22:41;;;;;;;1.65;1.55;;;;;;;7.52;100.00;97708.44;5012131;28;20025;-72
2021/12/25 16:25:07;;;;;;;2.17;1.98;;;;;;;7.55;100.00;97698.06;5011946;28;20034;-71
2021/12/25 16:27:33;;;;;;;5.82;2.60;;;;;;;7.41;100.00;97704.38;5007646;28;20036;-72
2021/12/25 16:29:58;;;;;;;1.73;1.63;;;;;;;7.56;100.00;97707.47;5003851;28;20025;-72
2021/12/25 16:32:23;;;;;;;3.50;2.33;;;;;;;7.44;100.00;97708.59;5012040;28;20108;-71
2021/12/25 16:34:49;;;;;;;3.03;2.83;;;;;;;7.46;100.00;97718.00;5012031;28;20056;-72
2021/12/25 16:37:14;;;;;;;2.40;2.10;;;;;;;7.52;100.00;97721.31;5005707;28;20109;-72
2021/12/25 16:39:41;;;;;;;8.07;3.50;;;;;;;7.41;100.00;97719.00;5007434;28;20477;-71
2021/12/25 16:42:08;;;;;;;1.27;1.27;;;;;;;7.38;100.00;97714.75;5011994;28;20092;-71
2021/12/25 16:44:34;;;;;;;2.05;1.83;;;;;;;7.19;100.00;97713.44;5012018;28;20033;-72
2021/12/25 16:46:59;;;;;;;2.03;1.83;;;;;;;7.07;100.00;97713.72;5011679;28;20423;-71
2021/12/25 16:49:26;;;;;;;1.80;1.70;;;;;;;6.89;100.00;97720.94;5011878;28;20056;-71
2021/12/25 16:51:53;;;;;;;2.55;1.85;;;;;;;6.69;100.00;97726.50;5011725;28;20105;-72
2021/12/25 16:54:18;;;;;;;2.08;1.90;;;;;;;6.86;100.00;97733.88;5011872;28;20088;-72
2021/12/25 16:56:48;;;;;;;1.80;1.70;;;;;;;6.61;100.00;97730.09;5008048;28;20022;-71
2021/12/25 16:59:17;;;;;;;2.05;1.95;;;;;;;6.48;100.00;97738.91;5003591;28;20063;-71
2021/12/25 17:01:42;;;;;;;1.60;1.50;;;;;;;6.36;100.00;97745.13;5011772;28;20402;-71
2021/12/25 17:04:08;;;;;;;2.45;1.98;;;;;;;6.22;100.00;97739.38;5011739;28;20033;-72
2021/12/25 17:06:33;;;;;;;2.63;2.28;;;;;;;6.00;100.00;97737.19;5008994;28;20073;-72
2021/12/25 17:08:59;;;;;;;2.03;1.92;;;;;;;5.95;100.00;97738.09;5003387;28;20029;-71
2021/12/25 17:11:24;;;;;;;1.45;1.33;;;;;;;5.95;100.00;97745.81;5014246;28;20030;-72
2021/12/25 17:13:50;;;;;;;1.77;1.67;;;;;;;5.88;100.00;97753.59;5015247;28;20032;-73
2021/12/25 17:16:16;;;;;;;1.83;1.73;;;;;;;5.79;100.00;97747.75;5014933;28;20029;-73
2021/12/25 17:18:41;;;;;;;3.60;3.00;;;;;;;5.88;100.00;97742.47;5015035;28;20021;-72
2021/12/25 17:21:07;;;;;;;1.05;1.00;;;;;;;5.69;100.00;97747.06;5012568;28;20734;-72
2021/12/25 17:23:34;;;;;;;1.65;1.55;;;;;;;5.71;100.00;97750.47;5003839;28;20014;-72
2021/12/25 17:25:59;;;;;;;1.67;1.58;;;;;;;5.68;100.00;97755.66;5003477;28;20018;-74
2021/12/25 17:28:25;;;;;;;2.50;2.05;;;;;;;5.86;100.00;97760.50;5003335;28;20481;-74
2021/12/25 17:30:54;;;;;;;3.83;1.98;;;;;;;5.66;100.00;97759.97;5011901;28;20522;-70
2021/12/25 17:33:25;;;;;;;1.38;1.25;;;;;;;5.62;100.00;97763.44;5014938;28;20038;-71
2021/12/25 17:35:56;;;;;;;1.15;1.15;;;;;;;5.66;100.00;97762.53;5012255;28;20022;-71
2021/12/25 17:38:27;;;;;;;1.02;1.02;;;;;;;5.52;100.00;97767.03;5006631;28;20017;-69
2021/12/25 17:40:52;;;;;;;2.30;2.20;;;;;;;5.55;100.00;97764.41;5014969;28;20029;-74
2021/12/25 17:43:19;;;;;;;1.33;1.30;;;;;;;5.52;100.00;97765.31;5014843;28;20037;-74
2021/12/25 17:45:44;;;;;;;3.03;1.80;;;;;;;5.41;100.00;97762.00;5014665;28;20049;-75
2021/12/25 17:48:09;;;;;;;1.75;1.65;;;;;;;5.41;100.00;97762.91;5014683;28;20349;-72
2021/12/25 17:50:37;;;;;;;4.05;3.50;;;;;;;5.57;100.00;97766.09;5014690;28;20025;-72
2021/12/25 17:53:04;;;;;;;1.80;1.70;;;;;;;5.57;100.00;97763.53;5014687;28;20026;-73
2021/12/25 17:55:31;;;;;;;1.70;1.60;;;;;;;5.41;100.00;97768.03;5014543;28;20101;-72
2021/12/25 17:57:57;;;;;;;1.30;1.30;;;;;;;5.33;100.00;97774.97;5007961;28;20018;-73
2021/12/25 18:00:30;;;;;;;1.70;1.60;;;;;;;5.41;100.00;97768.03;5007477;28;20065;-74
2021/12/25 18:02:55;;;;;;;7.50;4.75;;;;;;;5.39;100.00;97766.34;5014527;28;20041;-70
2021/12/25 18:05:22;;;;;;;6.05;4.00;;;;;;;5.34;100.00;97766.41;5002805;28;20023;-70
2021/12/25 18:07:47;;;;;;;1.88;1.77;;;;;;;5.61;100.00;97761.75;4994368;28;20471;-73
2021/12/25 18:10:17;;;;;;;1.63;1.52;;;;;;;5.63;100.00;97768.56;5010954;28;20040;-74
2021/12/25 18:12:43;;;;;;;1.67;1.58;;;;;;;5.61;100.00;97764.34;4994622;28;20028;-71
2021/12/25 18:15:11;;;;;;;1.75;1.65;;;;;;;5.40;100.00;97768.03;4994345;28;20038;-69
2021/12/25 18:17:39;;;;;;;0.90;0.90;;;;;;;5.25;100.00;97775.94;4994387;28;20031;-67
2021/12/25 18:20:10;;;;;;;1.05;0.82;;;;;;;5.15;100.00;97767.50;4993621;28;20038;-67
2021/12/25 18:22:36;;;;;;;1.02;1.02;;;;;;;5.31;100.00;97779.28;4993721;28;20036;-68
2021/12/25 18:25:05;;;;;;;2.60;2.25;;;;;;;5.25;100.00;97784.50;4994396;28;20033;-67
2021/12/25 18:27:30;;;;;;;2.20;2.05;;;;;;;5.14;100.00;97783.78;4993208;28;20030;-67
2021/12/25 18:29:56;;;;;;;4.68;3.92;;;;;;;5.15;100.00;97786.34;5002298;28;20073;-70
2021/12/25 18:32:21;;;;;;;0.93;0.93;;;;;;;5.10;100.00;97788.09;4992970;28;20391;-70
2021/12/25 18:34:47;;;;;;;2.28;2.15;;;;;;;4.97;100.00;97793.41;5001285;28;20033;-73
2021/12/25 18:37:12;;;;;;;1.70;1.60;;;;;;;4.99;100.00;97795.09;4997244;28;20021;-73
2021/12/25 18:39:38;;;;;;;0.93;0.93;;;;;;;4.99;100.00;97789.97;4998835;28;20033;-73
2021/12/25 18:42:04;;;;;;;1.42;1.33;;;;;;;4.95;100.00;97796.00;4994110;28;20034;-73
2021/12/25 18:44:31;;;;;;;3.83;1.77;;;;;;;4.87;100.00;97796.06;4993931;28;20599;-71
2021/12/25 18:46:57;;;;;;;2.30;2.20;;;;;;;4.77;100.00;97799.59;4993768;28;20022;-71
2021/12/25 18:49:22;;;;;;;3.45;1.88;;;;;;;4.73;100.00;97797.94;4993962;28;20027;-71
2021/12/25 18:51:48;;;;;;;2.33;1.23;;;;;;;4.83;100.00;97798.69;4994025;28;20045;-71
2021/12/25 18:54:14;;;;;;;2.83;2.58;;;;;;;4.85;100.00;97802.94;4993900;28;20356;-71
2021/12/25 18:56:39;;;;;;;3.92;3.25;;;;;;;4.90;100.00;97801.19;4993554;28;20030;-71
2021/12/25 18:59:06;;;;;;;2.88;2.35;;;;;;;4.93;100.00;97800.28;4993963;28;20081;-71
2021/12/25 19:01:32;;;;;;;2.95;2.75;;;;;;;4.84;100.00;97803.81;4993704;28;20563;-71